.
WxDataArchive / Data Records for 2014-02-25
2014-02-24 February 2014 2014-02-26

Data Records for Tuesday, 25 February 2014

Time	Temp	Chill	HIndex	Humid	Dewpt	 Wind 	HiWind	WindDir	Rain 	Barom
-----	----	-----	------	-----	-----	------	------	-------	-----	-----
00:00	19.5	19.5	19.5	70	11.3	0	2	270	0.00	30.205 
00:05	19.5	19.5	19.5	70	11.3	0	1	270	0.00	30.205 
00:10	19.5	19.5	19.5	70	11.3	0	1	270	0.00	30.205 
00:15	19.5	19.5	19.5	70	11.3	0	1	270	0.00	30.201 
00:20	19.5	19.5	19.5	70	11.3	0	1	270	0.00	30.201 
00:25	19.7	19.7	19.7	70	11.5	0	2	270	0.00	30.201 
00:30	19.7	19.7	19.7	70	11.5	0	1	270	0.00	30.199 
00:35	19.7	19.7	19.7	69	11.2	0	2	270	0.00	30.199 
00:40	19.7	19.7	19.7	69	11.2	0	2	270	0.00	30.199 
00:45	19.7	19.7	19.7	69	11.2	0	2	270	0.00	30.185 
00:50	19.7	19.7	19.7	69	11.2	0	2	270	0.00	30.185 
00:55	19.7	19.7	19.7	68	10.9	0	2	270	0.00	30.185 
01:00	19.7	19.7	19.7	69	11.2	0	1	270	0.00	30.184 
01:05	19.7	19.7	19.7	69	11.2	0	1	270	0.00	30.184 
01:10	19.7	19.7	19.7	68	10.9	0	1	270	0.00	30.184 
01:15	19.7	19.7	19.7	68	10.9	0	2	270	0.00	30.189 
01:20	19.9	19.9	19.9	68	11.1	0	3	270	0.00	30.189 
01:25	19.9	19.9	19.9	68	11.1	0	2	270	0.00	30.189 
01:30	19.9	19.9	19.9	68	11.1	0	2	270	0.00	30.195 
01:35	19.9	19.9	19.9	68	11.1	0	2	270	0.00	30.195 
01:40	19.9	19.9	19.9	68	11.1	0	1	270	0.00	30.195 
01:45	19.9	19.9	19.9	67	10.7	0	2	270	0.00	30.197 
01:50	19.9	19.9	19.9	67	10.7	0	1	270	0.00	30.197 
01:55	19.9	19.9	19.9	67	10.7	0	2	270	0.00	30.197 
02:00	19.9	19.9	19.9	67	10.7	0	2	270	0.00	30.185 
02:05	19.9	19.9	19.9	67	10.7	0	2	270	0.00	30.185 
02:10	19.9	19.9	19.9	66	10.4	0	2	270	0.00	30.185 
02:15	19.9	19.9	19.9	66	10.4	0	2	270	0.00	30.185 
02:20	19.9	19.9	19.9	66	10.4	0	3	270	0.00	30.185 
02:25	19.9	19.9	19.9	66	10.4	0	2	270	0.00	30.185 
02:30	19.9	19.9	19.9	66	10.4	0	2	270	0.00	30.186 
02:35	19.7	19.7	19.7	66	10.2	1	2	270	0.00	30.186 
02:40	19.7	19.7	19.7	66	10.2	0	1	270	0.00	30.186 
02:45	19.7	19.7	19.7	67	10.5	1	2	270	0.00	30.191 
02:50	19.7	19.7	19.7	66	10.2	0	3	270	0.00	30.191 
02:55	19.7	19.7	19.7	67	10.5	0	1	270	0.00	30.191 
03:00	19.7	19.7	19.7	67	10.5	0	1	270	0.00	30.189 
03:05	19.7	19.7	19.7	67	10.5	0	2	270	0.00	30.189 
03:10	19.7	19.7	19.7	67	10.5	0	2	270	0.00	30.189 
03:15	19.7	19.7	19.7	67	10.5	1	3	270	0.00	30.194 
03:20	19.7	19.7	19.7	67	10.5	0	1	270	0.00	30.194 
03:25	19.7	19.7	19.7	68	10.9	0	1	270	0.00	30.194 
03:30	19.5	19.5	19.5	69	11.0	0	2	270	0.00	30.184 
03:35	19.5	19.5	19.5	71	11.7	0	2	270	0.00	30.184 
03:40	19.4	19.4	19.4	72	11.9	0	2	270	0.00	30.184 
03:45	19.2	19.2	19.2	73	12.0	0	3	270	0.00	30.185 
03:50	19.2	19.2	19.2	74	12.3	0	3	270	0.00	30.185 
03:55	19.1	19.1	19.1	75	12.5	0	2	270	0.00	30.185 
04:00	19.1	19.1	19.1	76	12.8	0	2	270	0.00	30.183 
04:05	18.9	18.9	18.9	76	12.6	0	2	270	0.00	30.183 
04:10	18.9	18.9	18.9	77	12.9	0	3	270	0.00	30.183 
04:15	18.9	18.9	18.9	77	12.9	0	3	270	0.00	30.184 
04:20	18.9	18.9	18.9	77	12.9	0	3	270	0.00	30.184 
04:25	18.9	18.9	18.9	77	12.9	0	2	270	0.00	30.184 
04:30	18.9	18.9	18.9	78	13.2	0	3	270	0.00	30.183 
04:35	18.9	18.9	18.9	78	13.2	0	1	270	0.00	30.183 
04:40	19.1	19.1	19.1	78	13.4	0	1	270	0.00	30.183 
04:45	19.1	19.1	19.1	79	13.7	0	1	270	0.00	30.185 
04:50	19.1	19.1	19.1	79	13.7	0	2	270	0.00	30.185 
04:55	18.9	18.9	18.9	79	13.5	0	2	270	0.00	30.185 
05:00	18.9	18.9	18.9	80	13.8	0	2	270	0.00	30.183 
05:05	18.9	18.9	18.9	80	13.8	0	1	270	0.00	30.183 
05:10	18.9	18.9	18.9	80	13.8	0	1	270	0.00	30.183 
05:15	18.9	18.9	18.9	80	13.8	0	1	270	0.00	30.185 
05:20	18.9	18.9	18.9	81	14.1	0	2	270	0.00	30.185 
05:25	18.8	18.8	18.8	81	14.0	0	1	270	0.00	30.185 
05:30	18.8	18.8	18.8	81	14.0	0	1	270	0.00	30.185 
05:35	18.8	18.8	18.8	81	14.0	0	2	270	0.00	30.185 
05:40	18.6	18.6	18.6	81	13.8	0	1	270	0.00	30.185 
05:45	18.6	18.6	18.6	81	13.8	0	1	270	0.00	30.185 
05:50	18.6	18.6	18.6	81	13.8	0	1	270	0.00	30.185 
05:55	18.4	18.4	18.4	80	13.3	0	2	270	0.00	30.185 
06:00	18.4	18.4	18.4	80	13.3	0	1	270	0.00	30.184 
06:05	18.3	18.3	18.3	80	13.2	0	2	270	0.00	30.184 
06:10	18.1	18.1	18.1	80	13.0	0	1	270	0.00	30.184 
06:15	18.0	18.0	18.0	80	12.9	0	0	---	0.00	30.186 
06:20	17.8	17.8	17.8	80	12.7	0	1	270	0.00	30.186 
06:25	17.7	17.7	17.7	80	12.6	0	1	270	0.00	30.186 
06:30	17.5	17.5	17.5	80	12.4	0	0	---	0.00	30.184 
06:35	17.3	17.3	17.3	80	12.2	0	0	---	0.00	30.184 
06:40	17.2	17.2	17.2	80	12.1	0	0	---	0.00	30.184 
06:45	16.9	16.9	16.9	81	12.1	0	0	---	0.00	30.188 
06:50	16.7	16.7	16.7	81	11.9	0	0	---	0.00	30.188 
06:55	16.5	16.5	16.5	81	11.7	0	0	---	0.00	30.188 
07:00	16.5	16.5	16.5	81	11.7	0	0	---	0.00	30.191 
07:05	16.4	16.4	16.4	81	11.6	0	0	---	0.00	30.191 
07:10	16.2	16.2	16.2	81	11.4	0	1	270	0.00	30.191 
07:15	16.2	16.2	16.2	81	11.4	0	1	270	0.00	30.194 
07:20	16.2	16.2	16.2	82	11.7	0	0	---	0.00	30.194 
07:25	16.2	16.2	16.2	82	11.7	0	0	---	0.00	30.194 
07:30	16.2	16.2	16.2	82	11.7	0	1	270	0.00	30.198 
07:35	16.2	16.2	16.2	82	11.7	0	0	---	0.00	30.198 
07:40	16.2	16.2	16.2	82	11.7	0	0	---	0.00	30.198 
07:45	16.5	16.5	16.5	82	12.0	0	1	270	0.00	30.206 
07:50	16.7	16.7	16.7	83	12.5	0	0	---	0.00	30.206 
07:55	17.0	17.0	17.0	83	12.7	0	1	270	0.00	30.206 
08:00	17.2	17.2	17.2	82	12.7	0	2	270	0.00	30.207 
08:05	17.3	17.3	17.3	82	12.8	0	3	270	0.00	30.207 
08:10	17.5	17.5	17.5	82	13.0	0	2	270	0.00	30.207 
08:15	17.7	17.7	17.7	81	12.9	0	1	270	0.00	30.208 
08:20	17.7	17.7	17.7	81	12.9	0	2	270	0.00	30.208 
08:25	17.8	17.8	17.8	81	13.0	0	2	270	0.00	30.208 
08:30	18.0	18.0	18.0	80	12.9	0	2	270	0.00	30.209 
08:35	18.1	18.1	18.1	79	12.7	0	2	270	0.00	30.209 
08:40	18.4	18.4	18.4	79	13.0	1	3	270	0.00	30.209 
08:45	18.8	18.8	18.8	78	13.1	1	2	270	0.00	30.214 
08:50	18.9	18.9	18.9	77	12.9	1	3	270	0.00	30.214 
08:55	19.1	19.1	19.1	76	12.8	2	4	270	0.00	30.214 
09:00	19.1	19.1	19.1	75	12.5	1	3	270	0.00	30.218 
09:05	19.2	19.2	19.2	74	12.3	1	3	270	0.00	30.218 
09:10	19.2	19.2	19.2	73	12.0	2	4	270	0.00	30.218 
09:15	19.5	19.5	19.5	73	12.3	1	3	270	0.00	30.219 
09:20	19.7	19.7	19.7	73	12.5	1	4	292	0.00	30.219 
09:25	19.9	19.9	19.9	72	12.4	1	4	270	0.00	30.219 
09:30	19.9	19.9	19.9	72	12.4	1	3	270	0.00	30.218 
09:35	20.0	20.0	20.0	72	12.5	0	3	270	0.00	30.218 
09:40	20.3	20.3	20.3	71	12.4	1	3	270	0.00	30.218 
09:45	20.3	20.3	20.3	71	12.4	1	2	270	0.00	30.217 
09:50	20.5	20.5	20.5	70	12.3	1	3	270	0.00	30.217 
09:55	20.6	20.6	20.6	69	12.1	1	2	270	0.00	30.217 
10:00	20.8	20.8	20.8	69	12.3	1	4	270	0.00	30.212 
10:05	21.0	21.0	21.0	68	12.1	1	3	270	0.00	30.212 
10:10	21.4	21.4	21.4	68	12.5	0	2	270	0.00	30.212 
10:15	22.1	22.1	22.1	66	12.5	1	3	270	0.00	30.203 
10:20	21.9	21.9	21.9	65	12.0	1	4	270	0.00	30.203 
10:25	21.9	21.9	21.9	64	11.6	1	6	338	0.00	30.203 
10:30	21.9	21.9	21.9	64	11.6	1	6	292	0.00	30.203 
10:35	22.2	22.2	22.2	63	11.6	1	3	292	0.00	30.203 
10:40	22.5	22.5	22.5	63	11.8	1	4	248	0.00	30.203 
10:45	22.4	22.4	22.4	62	11.4	1	3	248	0.00	30.202 
10:50	22.2	22.2	22.2	62	11.2	1	3	248	0.00	30.202 
10:55	22.2	22.2	22.2	62	11.2	1	4	248	0.00	30.202 
11:00	22.2	22.2	22.2	61	10.8	1	3	248	0.00	30.203 
11:05	22.9	22.9	22.9	62	11.9	1	4	248	0.00	30.203 
11:10	23.5	23.5	23.5	60	11.7	1	5	292	0.00	30.203 
11:15	23.8	23.8	23.8	59	11.6	1	3	315	0.00	30.197 
11:20	23.9	23.9	23.9	59	11.7	1	3	315	0.00	30.197 
11:25	23.8	23.8	23.8	58	11.2	1	5	270	0.00	30.197 
11:30	23.8	23.8	23.8	57	10.8	1	4	270	0.00	30.201 
11:35	23.6	23.6	23.6	57	10.6	1	3	270	0.00	30.201 
11:40	23.6	23.6	23.6	57	10.6	1	3	270	0.00	30.201 
11:45	23.8	23.8	23.8	58	11.2	1	11	315	0.00	30.199 
11:50	23.8	23.8	23.8	59	11.6	2	4	338	0.00	30.199 
11:55	24.1	24.1	24.1	59	11.9	1	6	338	0.00	30.199 
12:00	24.4	24.4	24.4	59	12.2	1	3	270	0.00	30.189 
12:05	24.5	24.5	24.5	58	11.9	2	5	270	0.00	30.189 
12:10	24.7	24.7	24.7	59	12.4	1	3	248	0.00	30.189 
12:15	24.8	24.8	24.8	58	12.1	1	4	248	0.00	30.186 
12:20	24.8	24.8	24.8	59	12.5	1	5	248	0.00	30.186 
12:25	24.8	24.8	24.8	58	12.1	2	7	270	0.00	30.186 
12:30	25.0	25.0	25.0	59	12.7	2	6	248	0.00	30.184 
12:35	24.8	24.8	24.8	60	12.9	1	4	270	0.00	30.184 
12:40	24.7	24.7	24.7	59	12.4	1	4	248	0.00	30.184 
12:45	24.7	24.7	24.7	58	12.1	1	4	248	0.00	30.175 
12:50	24.5	24.5	24.5	62	13.4	2	4	248	0.00	30.175 
12:55	24.8	24.8	24.8	62	13.7	1	4	292	0.00	30.175 
13:00	25.3	25.3	25.3	60	13.4	2	5	248	0.00	30.168 
13:05	25.6	25.6	25.6	60	13.7	1	4	248	0.00	30.168 
13:10	26.1	26.1	26.1	60	14.1	1	6	248	0.00	30.168 
13:15	26.3	26.3	26.3	61	14.7	1	4	248	0.00	30.162 
13:20	25.7	25.7	25.7	62	14.5	1	4	248	0.00	30.162 
13:25	25.6	25.6	25.6	61	14.0	2	6	248	0.00	30.162 
13:30	25.4	25.4	25.4	61	13.9	1	4	292	0.00	30.154 
13:35	25.3	25.3	25.3	62	14.1	2	5	270	0.00	30.154 
13:40	25.1	25.1	25.1	62	13.9	1	3	270	0.00	30.154 
13:45	25.4	25.4	25.4	61	13.9	1	4	248	0.00	30.152 
13:50	25.7	25.7	25.7	59	13.4	1	5	248	0.00	30.152 
13:55	26.0	26.0	26.0	59	13.7	1	4	248	0.00	30.152 
14:00	26.0	26.0	26.0	58	13.3	2	4	248	0.00	30.147 
14:05	25.7	25.7	25.7	57	12.6	2	3	248	0.00	30.147 
14:10	25.8	25.8	25.8	57	12.7	2	5	270	0.00	30.147 
14:15	25.8	25.8	25.8	57	12.7	2	5	248	0.00	30.136 
14:20	25.8	25.8	25.8	57	12.7	2	4	270	0.00	30.136 
14:25	25.7	25.7	25.7	57	12.6	2	5	270	0.00	30.136 
14:30	25.6	25.6	25.6	57	12.5	1	4	315	0.00	30.129 
14:35	25.4	25.4	25.4	56	11.9	2	6	270	0.00	30.129 
14:40	25.3	25.3	25.3	56	11.8	1	4	248	0.00	30.129 
14:45	25.1	25.1	25.1	54	10.8	3	6	248	0.00	30.137 
14:50	24.8	24.8	24.8	56	11.4	2	6	270	0.00	30.137 
14:55	24.7	24.7	24.7	56	11.3	2	5	248	0.00	30.137 
15:00	24.7	24.7	24.7	57	11.7	2	4	270	0.00	30.134 
15:05	24.7	24.7	24.7	57	11.7	3	7	270	0.00	30.134 
15:10	24.4	24.4	24.4	58	11.8	2	5	270	0.00	30.134 
15:15	24.4	24.4	24.4	58	11.8	2	7	315	0.00	30.140 
15:20	24.2	24.2	24.2	58	11.6	3	9	270	0.00	30.140 
15:25	24.4	24.4	24.4	58	11.8	2	4	270	0.00	30.140 
15:30	24.4	24.4	24.4	58	11.8	1	4	270	0.00	30.129 
15:35	24.4	24.4	24.4	58	11.8	1	5	270	0.00	30.129 
15:40	24.2	24.2	24.2	58	11.6	2	7	338	0.00	30.129 
15:45	24.2	24.2	24.2	59	12.0	2	6	292	0.00	30.129 
15:50	24.1	24.1	24.1	60	12.3	2	4	248	0.00	30.129 
15:55	23.9	23.9	23.9	60	12.1	2	5	248	0.00	30.129 
16:00	23.9	23.9	23.9	60	12.1	2	5	270	0.00	30.125 
16:05	23.9	23.9	23.9	60	12.1	2	4	270	0.00	30.125 
16:10	23.9	23.9	23.9	60	12.1	1	5	292	0.00	30.125 
16:15	24.2	24.2	24.2	61	12.7	1	3	292	0.00	30.124 
16:20	24.2	24.2	24.2	60	12.3	2	5	270	0.00	30.124 
16:25	24.2	24.2	24.2	59	12.0	1	4	248	0.00	30.124 
16:30	24.1	24.1	24.1	58	11.5	3	6	270	0.00	30.123 
16:35	23.9	23.9	23.9	58	11.3	3	6	270	0.00	30.123 
16:40	23.8	23.8	23.8	59	11.6	1	5	248	0.00	30.123 
16:45	23.8	23.8	23.8	60	12.0	2	7	292	0.00	30.122 
16:50	23.6	23.6	23.6	60	11.8	2	6	270	0.00	30.122 
16:55	23.6	23.6	23.6	60	11.8	1	4	248	0.00	30.122 
17:00	23.8	23.8	23.8	61	12.3	2	5	270	0.00	30.122 
17:05	23.6	23.6	23.6	61	12.2	2	4	270	0.00	30.122 
17:10	23.6	23.6	23.6	60	11.8	2	5	270	0.00	30.122 
17:15	23.8	23.8	23.8	61	12.3	2	4	270	0.00	30.121 
17:20	23.8	23.8	23.8	62	12.7	2	4	248	0.00	30.121 
17:25	23.6	23.6	23.6	63	12.9	1	5	248	0.00	30.121 
17:30	23.5	23.5	23.5	64	13.1	1	4	248	0.00	30.109 
17:35	23.3	23.3	23.3	63	12.6	2	4	248	0.00	30.109 
17:40	23.3	23.3	23.3	62	12.2	1	3	248	0.00	30.109 
17:45	23.5	23.5	23.5	61	12.1	1	3	248	0.00	30.101 
17:50	23.3	23.3	23.3	61	11.9	2	7	248	0.00	30.101 
17:55	23.2	23.2	23.2	60	11.4	1	5	248	0.00	30.101 
18:00	23.0	23.0	23.0	61	11.6	0	3	248	0.00	30.104 
18:05	23.0	23.0	23.0	62	11.9	0	3	248	0.00	30.104 
18:10	23.0	23.0	23.0	62	11.9	1	4	248	0.00	30.104 
18:15	22.9	22.9	22.9	64	12.6	2	6	248	0.00	30.102 
18:20	22.9	22.9	22.9	65	12.9	1	3	248	0.00	30.102 
18:25	22.7	22.7	22.7	65	12.7	1	5	248	0.00	30.102 
18:30	22.5	22.5	22.5	66	12.9	2	4	248	0.00	30.098 
18:35	22.4	22.4	22.4	66	12.8	1	6	248	0.00	30.098 
18:40	22.2	22.2	22.2	66	12.6	2	7	248	0.00	30.098 
18:45	22.1	22.1	22.1	66	12.5	1	3	248	0.00	30.096 
18:50	21.9	21.9	21.9	66	12.3	1	4	248	0.00	30.096 
18:55	21.8	21.8	21.8	66	12.2	2	6	248	0.00	30.096 
19:00	21.6	21.6	21.6	66	12.0	2	6	248	0.00	30.094 
19:05	21.6	21.6	21.6	66	12.0	2	6	248	0.00	30.094 
19:10	21.4	21.4	21.4	67	12.2	1	5	248	0.00	30.094 
19:15	21.4	21.4	21.4	67	12.2	2	4	270	0.00	30.088 
19:20	21.4	21.4	21.4	67	12.2	1	5	248	0.00	30.088 
19:25	21.4	21.4	21.4	67	12.2	1	2	248	0.00	30.088 
19:30	21.4	21.4	21.4	67	12.2	1	5	248	0.00	30.085 
19:35	21.4	21.4	21.4	66	11.8	2	4	270	0.00	30.085 
19:40	21.3	21.3	21.3	66	11.7	2	5	248	0.00	30.085 
19:45	21.3	21.3	21.3	66	11.7	2	5	270	0.00	30.083 
19:50	21.1	21.1	21.1	66	11.5	1	5	270	0.00	30.083 
19:55	21.0	21.0	21.0	66	11.5	2	6	248	0.00	30.083 
20:00	20.8	20.8	20.8	66	11.3	2	5	248	0.00	30.090 
20:05	20.6	20.6	20.6	65	10.7	3	6	270	0.00	30.090 
20:10	20.6	20.6	20.6	65	10.7	3	5	270	0.00	30.090 
20:15	20.5	20.5	20.5	65	10.6	2	6	248	0.00	30.090 
20:20	20.3	20.3	20.3	65	10.4	2	6	248	0.00	30.090 
20:25	20.2	14.4	20.2	65	10.3	4	9	270	0.00	30.090 
20:30	20.2	20.2	20.2	65	10.3	3	6	292	0.00	30.092 
20:35	20.0	20.0	20.0	65	10.2	3	5	270	0.00	30.092 
20:40	19.9	19.9	19.9	65	10.1	2	6	270	0.00	30.092 
20:45	19.7	19.7	19.7	66	10.2	1	4	270	0.00	30.095 
20:50	19.5	19.5	19.5	66	10.0	2	6	270	0.00	30.095 
20:55	19.4	19.4	19.4	65	9.6	3	8	270	0.00	30.095 
21:00	19.2	19.2	19.2	64	9.0	3	6	270	0.00	30.092 
21:05	19.1	19.1	19.1	64	9.0	3	5	270	0.00	30.092 
21:10	18.9	18.9	18.9	64	8.8	2	5	270	0.00	30.092 
21:15	18.8	18.8	18.8	63	8.3	3	6	270	0.00	30.094 
21:20	18.6	18.6	18.6	63	8.1	3	6	270	0.00	30.094 
21:25	18.4	18.4	18.4	62	7.6	2	6	270	0.00	30.094 
21:30	18.3	18.3	18.3	62	7.5	3	7	292	0.00	30.096 
21:35	18.1	18.1	18.1	62	7.3	3	6	270	0.00	30.096 
21:40	18.1	18.1	18.1	62	7.3	2	4	270	0.00	30.096 
21:45	18.0	18.0	18.0	62	7.2	2	4	292	0.00	30.099 
21:50	17.8	17.8	17.8	62	7.0	2	4	270	0.00	30.099 
21:55	17.8	17.8	17.8	63	7.4	2	6	248	0.00	30.099 
22:00	17.7	17.7	17.7	63	7.3	2	6	270	0.00	30.102 
22:05	17.5	17.5	17.5	63	7.1	2	4	270	0.00	30.102 
22:10	17.3	17.3	17.3	64	7.2	2	4	270	0.00	30.102 
22:15	17.2	17.2	17.2	64	7.1	2	5	248	0.00	30.106 
22:20	17.0	17.0	17.0	65	7.3	3	5	270	0.00	30.106 
22:25	16.9	10.6	16.9	64	6.9	4	10	270	0.00	30.106 
22:30	16.9	10.6	16.9	64	6.9	4	9	270	0.00	30.108 
22:35	16.7	16.7	16.7	64	6.7	2	7	270	0.00	30.108 
22:40	16.5	16.5	16.5	64	6.5	3	6	270	0.00	30.108 
22:45	16.4	16.4	16.4	64	6.4	2	4	270	0.00	30.108 
22:50	16.2	16.2	16.2	64	6.2	3	9	270	0.00	30.108 
22:55	16.1	16.1	16.1	64	6.1	3	9	270	0.00	30.108 
23:00	15.9	15.9	15.9	65	6.2	2	5	270	0.00	30.110 
23:05	15.7	15.7	15.7	65	6.1	2	6	270	0.00	30.110 
23:10	15.6	15.6	15.6	65	6.0	3	7	270	0.00	30.110 
23:15	15.6	15.6	15.6	65	6.0	2	5	248	0.00	30.110 
23:20	15.4	15.4	15.4	65	5.8	2	10	270	0.00	30.110 
23:25	15.4	15.4	15.4	65	5.8	2	4	270	0.00	30.110 
23:30	15.2	15.2	15.2	65	5.6	2	9	270	0.00	30.113 
23:35	15.2	15.2	15.2	65	5.6	2	6	270	0.00	30.113 
23:40	15.1	15.1	15.1	65	5.5	2	5	270	0.00	30.113 
23:45	14.9	14.9	14.9	65	5.3	2	6	248	0.00	30.112 
23:50	14.8	14.8	14.8	65	5.2	1	3	248	0.00	30.112 
23:55	14.8	14.8	14.8	65	5.2	2	4	270	0.00	30.112 

CoCoRaHS
IN-AL-39
A2 Web Hosting
Creative Commons License
GoDaddy
search engine by freefind advanced

loaded 2018-11-18 11:44:06 • last modified 2010-11-18 10:43:29
Privacy PolicyDisclaimer
• wx.awcolley.com is powered by PmWiki v.2002016 •
• all content (unless otherwise noted) © 2018 A W Colley